sensor_id;sensor_type;location;lat;lon;timestamp;temperature;humidity
3308;DHT22;1666;48.898;9.182;2022-09-24T00:00:40;12.00;24.00
3308;DHT22;1666;48.898;9.182;2022-09-24T00:03:11;12.00;23.40
3308;DHT22;1666;48.898;9.182;2022-09-24T00:05:40;12.10;23.50
3308;DHT22;1666;48.898;9.182;2022-09-24T00:08:10;12.10;23.50
3308;DHT22;1666;48.898;9.182;2022-09-24T00:10:42;12.10;23.50
3308;DHT22;1666;48.898;9.182;2022-09-24T00:13:15;12.10;23.40
3308;DHT22;1666;48.898;9.182;2022-09-24T00:15:49;12.10;22.60
3308;DHT22;1666;48.898;9.182;2022-09-24T00:18:19;12.10;23.00
3308;DHT22;1666;48.898;9.182;2022-09-24T00:20:49;12.10;23.30
3308;DHT22;1666;48.898;9.182;2022-09-24T00:23:19;12.20;22.70
3308;DHT22;1666;48.898;9.182;2022-09-24T00:25:49;12.10;23.50
3308;DHT22;1666;48.898;9.182;2022-09-24T00:28:33;12.20;23.00
3308;DHT22;1666;48.898;9.182;2022-09-24T00:31:06;12.20;22.20
3308;DHT22;1666;48.898;9.182;2022-09-24T00:33:36;12.20;21.60
3308;DHT22;1666;48.898;9.182;2022-09-24T00:36:06;12.20;21.30
3308;DHT22;1666;48.898;9.182;2022-09-24T00:38:35;12.30;20.90
3308;DHT22;1666;48.898;9.182;2022-09-24T00:41:05;12.30;20.80
3308;DHT22;1666;48.898;9.182;2022-09-24T00:43:36;12.20;21.10
3308;DHT22;1666;48.898;9.182;2022-09-24T00:46:13;12.20;20.80
3308;DHT22;1666;48.898;9.182;2022-09-24T00:48:45;12.30;20.80
3308;DHT22;1666;48.898;9.182;2022-09-24T00:51:18;12.30;20.80
3308;DHT22;1666;48.898;9.182;2022-09-24T00:53:50;12.30;20.90
3308;DHT22;1666;48.898;9.182;2022-09-24T00:56:22;12.30;21.00
3308;DHT22;1666;48.898;9.182;2022-09-24T00:58:53;12.30;21.00
3308;DHT22;1666;48.898;9.182;2022-09-24T01:01:27;12.30;20.80
3308;DHT22;1666;48.898;9.182;2022-09-24T01:03:58;12.30;20.90
3308;DHT22;1666;48.898;9.182;2022-09-24T01:06:28;12.30;21.00
3308;DHT22;1666;48.898;9.182;2022-09-24T01:08:59;12.30;21.40
3308;DHT22;1666;48.898;9.182;2022-09-24T01:11:38;12.30;21.20
3308;DHT22;1666;48.898;9.182;2022-09-24T01:17:21;12.30;20.90
3308;DHT22;1666;48.898;9.182;2022-09-24T01:23:14;12.20;21.30
3308;DHT22;1666;48.898;9.182;2022-09-24T01:26:00;12.20;22.10
3308;DHT22;1666;48.898;9.182;2022-09-24T01:28:43;12.20;21.90
3308;DHT22;1666;48.898;9.182;2022-09-24T01:31:27;12.20;22.60
3308;DHT22;1666;48.898;9.182;2022-09-24T01:34:01;12.20;22.50
3308;DHT22;1666;48.898;9.182;2022-09-24T01:36:33;12.20;22.40
3308;DHT22;1666;48.898;9.182;2022-09-24T01:39:06;12.20;22.10
3308;DHT22;1666;48.898;9.182;2022-09-24T01:41:37;12.20;23.00
3308;DHT22;1666;48.898;9.182;2022-09-24T01:44:10;12.10;22.50
3308;DHT22;1666;48.898;9.182;2022-09-24T01:46:44;12.10;23.40
3308;DHT22;1666;48.898;9.182;2022-09-24T01:49:14;12.10;23.50
3308;DHT22;1666;48.898;9.182;2022-09-24T01:51:47;12.00;23.40
3308;DHT22;1666;48.898;9.182;2022-09-24T01:54:24;12.00;23.40
3308;DHT22;1666;48.898;9.182;2022-09-24T01:56:57;11.90;23.40
3308;DHT22;1666;48.898;9.182;2022-09-24T01:59:35;11.90;23.80
3308;DHT22;1666;48.898;9.182;2022-09-24T02:02:13;11.80;24.50
3308;DHT22;1666;48.898;9.182;2022-09-24T02:04:47;11.90;24.90
3308;DHT22;1666;48.898;9.182;2022-09-24T02:07:24;11.80;25.10
3308;DHT22;1666;48.898;9.182;2022-09-24T02:09:55;11.70;25.70
3308;DHT22;1666;48.898;9.182;2022-09-24T02:12:28;11.70;26.20
3308;DHT22;1666;48.898;9.182;2022-09-24T02:15:03;11.70;26.60
3308;DHT22;1666;48.898;9.182;2022-09-24T02:17:41;11.70;26.60
3308;DHT22;1666;48.898;9.182;2022-09-24T02:20:14;11.80;26.70
3308;DHT22;1666;48.898;9.182;2022-09-24T02:22:44;11.80;26.80
3308;DHT22;1666;48.898;9.182;2022-09-24T02:25:19;11.80;26.70
3308;DHT22;1666;48.898;9.182;2022-09-24T02:27:49;11.80;26.70
3308;DHT22;1666;48.898;9.182;2022-09-24T02:30:19;11.80;26.70
3308;DHT22;1666;48.898;9.182;2022-09-24T02:32:53;11.80;27.20
3308;DHT22;1666;48.898;9.182;2022-09-24T02:35:24;11.80;26.70
3308;DHT22;1666;48.898;9.182;2022-09-24T02:37:51;11.80;26.70
3308;DHT22;1666;48.898;9.182;2022-09-24T02:40:21;11.80;26.70
3308;DHT22;1666;48.898;9.182;2022-09-24T02:42:51;11.80;26.70
3308;DHT22;1666;48.898;9.182;2022-09-24T02:45:21;11.80;26.80
3308;DHT22;1666;48.898;9.182;2022-09-24T02:47:53;11.80;27.00
3308;DHT22;1666;48.898;9.182;2022-09-24T02:50:23;11.80;26.90
3308;DHT22;1666;48.898;9.182;2022-09-24T02:52:53;11.80;26.80
3308;DHT22;1666;48.898;9.182;2022-09-24T02:55:23;11.80;26.70
3308;DHT22;1666;48.898;9.182;2022-09-24T02:57:53;11.80;27.00
3308;DHT22;1666;48.898;9.182;2022-09-24T03:00:22;11.70;26.90
3308;DHT22;1666;48.898;9.182;2022-09-24T03:02:55;11.70;28.10
3308;DHT22;1666;48.898;9.182;2022-09-24T03:05:25;11.80;28.10
3308;DHT22;1666;48.898;9.182;2022-09-24T03:07:54;11.80;27.70
3308;DHT22;1666;48.898;9.182;2022-09-24T03:10:24;11.80;27.80
3308;DHT22;1666;48.898;9.182;2022-09-24T03:12:54;11.80;27.50
3308;DHT22;1666;48.898;9.182;2022-09-24T03:15:25;11.70;27.70
3308;DHT22;1666;48.898;9.182;2022-09-24T03:17:58;11.70;28.10
3308;DHT22;1666;48.898;9.182;2022-09-24T03:20:27;11.70;28.50
3308;DHT22;1666;48.898;9.182;2022-09-24T03:22:58;11.70;28.10
3308;DHT22;1666;48.898;9.182;2022-09-24T03:25:27;11.70;28.00
3308;DHT22;1666;48.898;9.182;2022-09-24T03:27:57;11.70;27.90
3308;DHT22;1666;48.898;9.182;2022-09-24T03:30:27;11.70;27.50
3308;DHT22;1666;48.898;9.182;2022-09-24T03:33:12;11.70;27.60
3308;DHT22;1666;48.898;9.182;2022-09-24T03:35:41;11.70;28.50
3308;DHT22;1666;48.898;9.182;2022-09-24T03:38:11;11.60;28.10
3308;DHT22;1666;48.898;9.182;2022-09-24T03:40:41;11.70;27.60
3308;DHT22;1666;48.898;9.182;2022-09-24T03:43:11;11.70;27.00
3308;DHT22;1666;48.898;9.182;2022-09-24T03:45:40;11.60;27.40
3308;DHT22;1666;48.898;9.182;2022-09-24T03:48:13;11.60;27.50
3308;DHT22;1666;48.898;9.182;2022-09-24T03:50:43;11.70;27.70
3308;DHT22;1666;48.898;9.182;2022-09-24T03:53:13;11.60;28.00
3308;DHT22;1666;48.898;9.182;2022-09-24T03:55:44;11.60;28.00
3308;DHT22;1666;48.898;9.182;2022-09-24T03:58:15;11.60;28.30
3308;DHT22;1666;48.898;9.182;2022-09-24T04:00:45;11.50;28.30
3308;DHT22;1666;48.898;9.182;2022-09-24T04:03:17;11.50;28.70
3308;DHT22;1666;48.898;9.182;2022-09-24T04:05:47;11.50;28.80
3308;DHT22;1666;48.898;9.182;2022-09-24T04:08:17;11.50;28.90
3308;DHT22;1666;48.898;9.182;2022-09-24T04:10:48;11.40;29.10
3308;DHT22;1666;48.898;9.182;2022-09-24T04:13:18;11.40;29.50
3308;DHT22;1666;48.898;9.182;2022-09-24T04:15:48;11.40;28.80
3308;DHT22;1666;48.898;9.182;2022-09-24T04:18:21;11.40;28.90
3308;DHT22;1666;48.898;9.182;2022-09-24T04:20:55;11.50;28.20
3308;DHT22;1666;48.898;9.182;2022-09-24T04:23:25;11.50;27.60
3308;DHT22;1666;48.898;9.182;2022-09-24T04:25:57;11.50;27.80
3308;DHT22;1666;48.898;9.182;2022-09-24T04:28:28;11.50;27.80
3308;DHT22;1666;48.898;9.182;2022-09-24T04:30:58;11.50;27.30
3308;DHT22;1666;48.898;9.182;2022-09-24T04:33:30;11.50;26.60
3308;DHT22;1666;48.898;9.182;2022-09-24T04:36:01;11.50;26.50
3308;DHT22;1666;48.898;9.182;2022-09-24T04:38:30;11.50;27.50
3308;DHT22;1666;48.898;9.182;2022-09-24T04:41:04;11.50;27.20
3308;DHT22;1666;48.898;9.182;2022-09-24T04:43:34;11.50;27.30
3308;DHT22;1666;48.898;9.182;2022-09-24T04:46:05;11.40;27.30
3308;DHT22;1666;48.898;9.182;2022-09-24T04:48:38;11.40;27.50
3308;DHT22;1666;48.898;9.182;2022-09-24T04:51:08;11.40;28.00
3308;DHT22;1666;48.898;9.182;2022-09-24T04:53:38;11.50;28.30
3308;DHT22;1666;48.898;9.182;2022-09-24T04:56:08;11.40;27.80
3308;DHT22;1666;48.898;9.182;2022-09-24T04:58:38;11.40;27.50
3308;DHT22;1666;48.898;9.182;2022-09-24T05:01:08;11.50;27.60
3308;DHT22;1666;48.898;9.182;2022-09-24T05:03:44;11.40;27.90
3308;DHT22;1666;48.898;9.182;2022-09-24T05:06:13;11.40;28.00
3308;DHT22;1666;48.898;9.182;2022-09-24T05:08:43;11.50;27.50
3308;DHT22;1666;48.898;9.182;2022-09-24T05:11:13;11.50;27.90
3308;DHT22;1666;48.898;9.182;2022-09-24T05:13:45;11.50;27.90
3308;DHT22;1666;48.898;9.182;2022-09-24T05:16:15;11.50;28.00
3308;DHT22;1666;48.898;9.182;2022-09-24T05:18:47;11.50;27.90
3308;DHT22;1666;48.898;9.182;2022-09-24T05:21:17;11.50;27.60
3308;DHT22;1666;48.898;9.182;2022-09-24T05:23:47;11.50;27.80
3308;DHT22;1666;48.898;9.182;2022-09-24T05:26:17;11.50;27.40
3308;DHT22;1666;48.898;9.182;2022-09-24T05:28:59;11.50;26.70
3308;DHT22;1666;48.898;9.182;2022-09-24T05:31:29;11.50;27.30
3308;DHT22;1666;48.898;9.182;2022-09-24T05:34:01;11.60;27.30
3308;DHT22;1666;48.898;9.182;2022-09-24T05:36:31;11.60;26.70
3308;DHT22;1666;48.898;9.182;2022-09-24T05:39:01;11.60;26.60
3308;DHT22;1666;48.898;9.182;2022-09-24T05:41:32;11.60;26.60
3308;DHT22;1666;48.898;9.182;2022-09-24T05:44:02;11.60;26.70
3308;DHT22;1666;48.898;9.182;2022-09-24T05:46:32;11.60;26.80
3308;DHT22;1666;48.898;9.182;2022-09-24T05:49:05;11.60;26.90
3308;DHT22;1666;48.898;9.182;2022-09-24T05:51:34;11.60;26.60
3308;DHT22;1666;48.898;9.182;2022-09-24T05:54:04;11.70;26.70
3308;DHT22;1666;48.898;9.182;2022-09-24T05:56:34;11.70;26.70
3308;DHT22;1666;48.898;9.182;2022-09-24T05:59:04;11.80;26.70
3308;DHT22;1666;48.898;9.182;2022-09-24T06:01:34;11.80;26.60
3308;DHT22;1666;48.898;9.182;2022-09-24T06:04:06;11.90;25.60
3308;DHT22;1666;48.898;9.182;2022-09-24T06:06:36;11.90;25.70
3308;DHT22;1666;48.898;9.182;2022-09-24T06:09:06;12.00;25.90
3308;DHT22;1666;48.898;9.182;2022-09-24T06:11:36;12.00;24.90
3308;DHT22;1666;48.898;9.182;2022-09-24T06:14:07;12.00;24.10
3308;DHT22;1666;48.898;9.182;2022-09-24T06:16:37;12.00;23.40
3308;DHT22;1666;48.898;9.182;2022-09-24T06:19:10;12.00;24.20
3308;DHT22;1666;48.898;9.182;2022-09-24T06:21:39;12.00;23.50
3308;DHT22;1666;48.898;9.182;2022-09-24T06:24:09;12.10;23.40
3308;DHT22;1666;48.898;9.182;2022-09-24T06:26:39;12.00;23.40
3308;DHT22;1666;48.898;9.182;2022-09-24T06:29:09;12.10;23.80
3308;DHT22;1666;48.898;9.182;2022-09-24T06:31:39;12.20;23.50
3308;DHT22;1666;48.898;9.182;2022-09-24T06:34:11;12.30;23.60
3308;DHT22;1666;48.898;9.182;2022-09-24T06:36:41;12.30;23.10
3308;DHT22;1666;48.898;9.182;2022-09-24T06:39:11;12.40;22.00
3308;DHT22;1666;48.898;9.182;2022-09-24T06:41:40;12.40;20.80
3308;DHT22;1666;48.898;9.182;2022-09-24T06:44:10;12.50;21.30
3308;DHT22;1666;48.898;9.182;2022-09-24T06:46:40;12.50;20.70
3308;DHT22;1666;48.898;9.182;2022-09-24T06:49:13;12.50;20.50
3308;DHT22;1666;48.898;9.182;2022-09-24T06:51:43;12.50;20.60
3308;DHT22;1666;48.898;9.182;2022-09-24T06:54:13;12.60;19.50
3308;DHT22;1666;48.898;9.182;2022-09-24T06:56:43;12.60;19.00
3308;DHT22;1666;48.898;9.182;2022-09-24T06:59:13;12.80;18.70
3308;DHT22;1666;48.898;9.182;2022-09-24T07:01:43;12.80;18.00
3308;DHT22;1666;48.898;9.182;2022-09-24T07:04:15;13.00;16.20
3308;DHT22;1666;48.898;9.182;2022-09-24T07:06:45;13.00;16.60
3308;DHT22;1666;48.898;9.182;2022-09-24T07:09:27;12.90;17.00
3308;DHT22;1666;48.898;9.182;2022-09-24T07:11:57;13.10;16.60
3308;DHT22;1666;48.898;9.182;2022-09-24T07:14:31;13.10;15.20
3308;DHT22;1666;48.898;9.182;2022-09-24T07:17:01;13.20;17.20
3308;DHT22;1666;48.898;9.182;2022-09-24T07:19:33;13.30;15.00
3308;DHT22;1666;48.898;9.182;2022-09-24T07:22:04;13.30;14.50
3308;DHT22;1666;48.898;9.182;2022-09-24T07:24:34;13.40;13.40
3308;DHT22;1666;48.898;9.182;2022-09-24T07:27:04;13.50;13.10
3308;DHT22;1666;48.898;9.182;2022-09-24T07:29:35;13.40;11.10
3308;DHT22;1666;48.898;9.182;2022-09-24T07:32:05;13.30;13.00
3308;DHT22;1666;48.898;9.182;2022-09-24T07:34:39;13.50;13.90
3308;DHT22;1666;48.898;9.182;2022-09-24T07:37:08;13.60;12.70
3308;DHT22;1666;48.898;9.182;2022-09-24T07:39:38;13.60;11.30
3308;DHT22;1666;48.898;9.182;2022-09-24T07:42:09;13.60;11.80
3308;DHT22;1666;48.898;9.182;2022-09-24T07:44:38;13.60;10.90
3308;DHT22;1666;48.898;9.182;2022-09-24T07:47:08;13.60;10.20
3308;DHT22;1666;48.898;9.182;2022-09-24T07:49:44;13.60;11.20
3308;DHT22;1666;48.898;9.182;2022-09-24T07:52:14;13.60;11.00
3308;DHT22;1666;48.898;9.182;2022-09-24T07:54:44;13.50;10.90
3308;DHT22;1666;48.898;9.182;2022-09-24T07:57:14;13.60;11.00
3308;DHT22;1666;48.898;9.182;2022-09-24T07:59:44;13.50;11.30
3308;DHT22;1666;48.898;9.182;2022-09-24T08:02:15;13.80;10.40
3308;DHT22;1666;48.898;9.182;2022-09-24T08:04:48;13.80;10.60
3308;DHT22;1666;48.898;9.182;2022-09-24T08:07:18;13.90;9.20
3308;DHT22;1666;48.898;9.182;2022-09-24T08:09:48;13.80;8.00
3308;DHT22;1666;48.898;9.182;2022-09-24T08:12:17;13.90;9.10
3308;DHT22;1666;48.898;9.182;2022-09-24T08:14:47;13.80;9.30
3308;DHT22;1666;48.898;9.182;2022-09-24T08:17:17;13.70;10.30
3308;DHT22;1666;48.898;9.182;2022-09-24T08:19:50;13.90;9.10
3308;DHT22;1666;48.898;9.182;2022-09-24T08:22:22;14.00;9.00
3308;DHT22;1666;48.898;9.182;2022-09-24T08:24:52;14.20;8.30
3308;DHT22;1666;48.898;9.182;2022-09-24T08:27:23;14.20;5.50
3308;DHT22;1666;48.898;9.182;2022-09-24T08:29:53;14.30;6.70
3308;DHT22;1666;48.898;9.182;2022-09-24T08:32:23;14.40;4.50
3308;DHT22;1666;48.898;9.182;2022-09-24T08:34:56;14.60;4.30
3308;DHT22;1666;48.898;9.182;2022-09-24T08:37:26;14.60;2.90
3308;DHT22;1666;48.898;9.182;2022-09-24T08:39:57;14.50;2.50
3308;DHT22;1666;48.898;9.182;2022-09-24T08:42:33;14.60;1.00
3308;DHT22;1666;48.898;9.182;2022-09-24T08:45:05;14.70;1.00
3308;DHT22;1666;48.898;9.182;2022-09-24T08:47:50;14.70;1.00
3308;DHT22;1666;48.898;9.182;2022-09-24T08:50:26;14.90;1.00
3308;DHT22;1666;48.898;9.182;2022-09-24T08:53:05;15.10;1.00
3308;DHT22;1666;48.898;9.182;2022-09-24T08:55:38;15.20;1.00
3308;DHT22;1666;48.898;9.182;2022-09-24T08:58:29;15.10;1.00
3308;DHT22;1666;48.898;9.182;2022-09-24T09:01:10;15.40;1.00
3308;DHT22;1666;48.898;9.182;2022-09-24T09:03:46;15.50;1.00
3308;DHT22;1666;48.898;9.182;2022-09-24T09:06:39;15.60;1.00
3308;DHT22;1666;48.898;9.182;2022-09-24T09:09:12;15.90;1.00
3308;DHT22;1666;48.898;9.182;2022-09-24T09:11:47;16.10;1.00
3308;DHT22;1666;48.898;9.182;2022-09-24T09:14:20;16.00;1.00
3308;DHT22;1666;48.898;9.182;2022-09-24T09:17:00;16.30;1.00
3308;DHT22;1666;48.898;9.182;2022-09-24T09:19:32;16.70;1.00
3308;DHT22;1666;48.898;9.182;2022-09-24T09:22:10;17.00;1.00
3308;DHT22;1666;48.898;9.182;2022-09-24T09:24:44;16.40;1.00
3308;DHT22;1666;48.898;9.182;2022-09-24T09:27:16;16.70;1.00
3308;DHT22;1666;48.898;9.182;2022-09-24T09:29:48;16.60;1.00
3308;DHT22;1666;48.898;9.182;2022-09-24T09:32:30;16.50;1.00
3308;DHT22;1666;48.898;9.182;2022-09-24T09:35:09;16.90;1.00
3308;DHT22;1666;48.898;9.182;2022-09-24T09:37:48;17.00;1.00
3308;DHT22;1666;48.898;9.182;2022-09-24T09:40:29;16.90;1.00
3308;DHT22;1666;48.898;9.182;2022-09-24T09:43:01;17.50;1.00
3308;DHT22;1666;48.898;9.182;2022-09-24T09:45:37;17.10;1.00
3308;DHT22;1666;48.898;9.182;2022-09-24T09:48:09;17.30;1.00
3308;DHT22;1666;48.898;9.182;2022-09-24T09:50:44;17.60;1.00
3308;DHT22;1666;48.898;9.182;2022-09-24T09:53:22;17.70;1.00
3308;DHT22;1666;48.898;9.182;2022-09-24T09:55:53;17.60;1.00
3308;DHT22;1666;48.898;9.182;2022-09-24T09:58:25;17.40;1.00
3308;DHT22;1666;48.898;9.182;2022-09-24T10:01:04;17.10;1.00
3308;DHT22;1666;48.898;9.182;2022-09-24T10:03:46;17.10;1.00
3308;DHT22;1666;48.898;9.182;2022-09-24T10:06:24;17.00;1.00
3308;DHT22;1666;48.898;9.182;2022-09-24T10:09:06;17.20;1.00
3308;DHT22;1666;48.898;9.182;2022-09-24T10:11:36;17.00;1.00
3308;DHT22;1666;48.898;9.182;2022-09-24T10:14:10;17.10;1.00
3308;DHT22;1666;48.898;9.182;2022-09-24T10:16:43;16.90;1.00
3308;DHT22;1666;48.898;9.182;2022-09-24T10:19:15;16.90;1.00
3308;DHT22;1666;48.898;9.182;2022-09-24T10:21:48;16.90;1.00
3308;DHT22;1666;48.898;9.182;2022-09-24T10:24:23;16.90;1.00
3308;DHT22;1666;48.898;9.182;2022-09-24T10:26:53;16.70;1.00
3308;DHT22;1666;48.898;9.182;2022-09-24T10:29:25;16.50;1.00
3308;DHT22;1666;48.898;9.182;2022-09-24T10:32:15;16.60;1.00
3308;DHT22;1666;48.898;9.182;2022-09-24T10:34:54;16.40;1.00
3308;DHT22;1666;48.898;9.182;2022-09-24T10:37:25;16.50;1.00
3308;DHT22;1666;48.898;9.182;2022-09-24T10:40:00;16.50;1.00
3308;DHT22;1666;48.898;9.182;2022-09-24T10:42:30;16.50;1.00
3308;DHT22;1666;48.898;9.182;2022-09-24T10:45:00;16.60;1.00
3308;DHT22;1666;48.898;9.182;2022-09-24T10:47:36;16.50;1.00
3308;DHT22;1666;48.898;9.182;2022-09-24T10:50:22;16.50;1.00
3308;DHT22;1666;48.898;9.182;2022-09-24T10:52:55;16.50;1.00
3308;DHT22;1666;48.898;9.182;2022-09-24T10:55:38;16.30;1.00
3308;DHT22;1666;48.898;9.182;2022-09-24T10:58:24;16.40;1.00
3308;DHT22;1666;48.898;9.182;2022-09-24T11:01:08;16.40;1.00
3308;DHT22;1666;48.898;9.182;2022-09-24T11:03:51;16.50;1.00
3308;DHT22;1666;48.898;9.182;2022-09-24T11:06:34;16.70;1.00
3308;DHT22;1666;48.898;9.182;2022-09-24T11:09:16;16.90;1.00
3308;DHT22;1666;48.898;9.182;2022-09-24T11:11:59;17.00;1.00
3308;DHT22;1666;48.898;9.182;2022-09-24T11:14:43;17.20;1.00
3308;DHT22;1666;48.898;9.182;2022-09-24T11:17:33;17.40;1.00
3308;DHT22;1666;48.898;9.182;2022-09-24T11:20:24;17.10;1.00
3308;DHT22;1666;48.898;9.182;2022-09-24T11:23:25;17.20;1.00
3308;DHT22;1666;48.898;9.182;2022-09-24T11:26:05;17.10;1.00
3308;DHT22;1666;48.898;9.182;2022-09-24T11:29:08;17.20;1.00
3308;DHT22;1666;48.898;9.182;2022-09-24T11:31:41;17.40;1.00
3308;DHT22;1666;48.898;9.182;2022-09-24T11:34:27;17.50;1.00
3308;DHT22;1666;48.898;9.182;2022-09-24T11:37:15;17.80;1.00
3308;DHT22;1666;48.898;9.182;2022-09-24T11:39:58;17.40;1.00
3308;DHT22;1666;48.898;9.182;2022-09-24T11:42:35;17.20;1.00
3308;DHT22;1666;48.898;9.182;2022-09-24T11:45:41;17.30;1.00
3308;DHT22;1666;48.898;9.182;2022-09-24T11:48:27;17.30;1.00
3308;DHT22;1666;48.898;9.182;2022-09-24T11:51:13;17.20;1.00
3308;DHT22;1666;48.898;9.182;2022-09-24T11:53:50;17.10;1.00
3308;DHT22;1666;48.898;9.182;2022-09-24T11:56:25;17.30;1.00
3308;DHT22;1666;48.898;9.182;2022-09-24T11:59:07;17.20;1.00
3308;DHT22;1666;48.898;9.182;2022-09-24T12:01:46;17.00;1.00
3308;DHT22;1666;48.898;9.182;2022-09-24T12:04:22;17.00;1.00
3308;DHT22;1666;48.898;9.182;2022-09-24T12:06:56;17.10;1.00
3308;DHT22;1666;48.898;9.182;2022-09-24T12:09:32;17.00;1.00
3308;DHT22;1666;48.898;9.182;2022-09-24T12:12:07;16.90;1.30
3308;DHT22;1666;48.898;9.182;2022-09-24T12:14:44;16.90;2.50
3308;DHT22;1666;48.898;9.182;2022-09-24T12:17:24;16.80;1.90
3308;DHT22;1666;48.898;9.182;2022-09-24T12:19:59;16.50;4.10
3308;DHT22;1666;48.898;9.182;2022-09-24T12:22:30;16.50;5.10
3308;DHT22;1666;48.898;9.182;2022-09-24T12:25:02;16.40;4.70
3308;DHT22;1666;48.898;9.182;2022-09-24T12:27:35;16.30;4.50
3308;DHT22;1666;48.898;9.182;2022-09-24T12:30:19;16.30;4.60
3308;DHT22;1666;48.898;9.182;2022-09-24T12:33:12;16.20;9.60
3308;DHT22;1666;48.898;9.182;2022-09-24T12:35:54;16.10;12.00
3308;DHT22;1666;48.898;9.182;2022-09-24T12:38:30;15.90;12.40
3308;DHT22;1666;48.898;9.182;2022-09-24T12:41:25;15.80;15.70
3308;DHT22;1666;48.898;9.182;2022-09-24T12:44:00;15.60;18.90
3308;DHT22;1666;48.898;9.182;2022-09-24T12:46:38;15.50;23.60
3308;DHT22;1666;48.898;9.182;2022-09-24T12:49:26;15.50;28.10
3308;DHT22;1666;48.898;9.182;2022-09-24T12:51:59;15.30;26.20
3308;DHT22;1666;48.898;9.182;2022-09-24T12:54:32;15.10;29.00
3308;DHT22;1666;48.898;9.182;2022-09-24T12:57:07;15.00;31.60
3308;DHT22;1666;48.898;9.182;2022-09-24T12:59:48;15.00;33.40
3308;DHT22;1666;48.898;9.182;2022-09-24T13:02:19;14.90;37.10
3308;DHT22;1666;48.898;9.182;2022-09-24T13:05:13;14.90;39.10
3308;DHT22;1666;48.898;9.182;2022-09-24T13:07:59;14.80;40.30
3308;DHT22;1666;48.898;9.182;2022-09-24T13:10:30;14.70;39.70
3308;DHT22;1666;48.898;9.182;2022-09-24T13:13:13;14.70;43.00
3308;DHT22;1666;48.898;9.182;2022-09-24T13:15:44;14.80;44.30
3308;DHT22;1666;48.898;9.182;2022-09-24T13:18:19;14.90;45.60
3308;DHT22;1666;48.898;9.182;2022-09-24T13:21:01;14.80;45.50
3308;DHT22;1666;48.898;9.182;2022-09-24T13:23:46;14.90;45.60
3308;DHT22;1666;48.898;9.182;2022-09-24T13:26:29;14.90;45.50
3308;DHT22;1666;48.898;9.182;2022-09-24T13:29:01;15.10;45.80
3308;DHT22;1666;48.898;9.182;2022-09-24T13:31:39;15.00;43.60
3308;DHT22;1666;48.898;9.182;2022-09-24T13:34:17;15.10;41.70
3308;DHT22;1666;48.898;9.182;2022-09-24T13:36:56;15.20;42.30
3308;DHT22;1666;48.898;9.182;2022-09-24T13:39:32;15.20;41.40
3308;DHT22;1666;48.898;9.182;2022-09-24T13:42:07;15.10;41.30
3308;DHT22;1666;48.898;9.182;2022-09-24T13:44:43;15.10;41.90
3308;DHT22;1666;48.898;9.182;2022-09-24T13:47:21;15.20;42.50
3308;DHT22;1666;48.898;9.182;2022-09-24T13:50:02;15.20;42.90
3308;DHT22;1666;48.898;9.182;2022-09-24T13:52:41;15.20;42.80
3308;DHT22;1666;48.898;9.182;2022-09-24T13:55:17;15.30;43.00
3308;DHT22;1666;48.898;9.182;2022-09-24T13:57:49;15.50;42.60
3308;DHT22;1666;48.898;9.182;2022-09-24T14:00:20;15.60;41.70
3308;DHT22;1666;48.898;9.182;2022-09-24T14:02:57;15.70;38.80
3308;DHT22;1666;48.898;9.182;2022-09-24T14:05:30;15.90;40.00
3308;DHT22;1666;48.898;9.182;2022-09-24T14:08:06;15.90;39.00
3308;DHT22;1666;48.898;9.182;2022-09-24T14:10:37;15.90;41.60
3308;DHT22;1666;48.898;9.182;2022-09-24T14:13:18;15.80;39.60
3308;DHT22;1666;48.898;9.182;2022-09-24T14:15:55;16.10;41.00
3308;DHT22;1666;48.898;9.182;2022-09-24T14:18:27;16.20;40.70
3308;DHT22;1666;48.898;9.182;2022-09-24T14:21:02;16.10;39.90
3308;DHT22;1666;48.898;9.182;2022-09-24T14:23:38;15.90;38.00
3308;DHT22;1666;48.898;9.182;2022-09-24T14:26:15;15.90;40.20
3308;DHT22;1666;48.898;9.182;2022-09-24T14:28:50;16.10;41.10
3308;DHT22;1666;48.898;9.182;2022-09-24T14:31:20;15.90;39.30
3308;DHT22;1666;48.898;9.182;2022-09-24T14:33:50;15.90;39.50
3308;DHT22;1666;48.898;9.182;2022-09-24T14:36:20;15.90;40.20
3308;DHT22;1666;48.898;9.182;2022-09-24T14:38:58;15.80;42.10
3308;DHT22;1666;48.898;9.182;2022-09-24T14:41:30;15.80;41.20
3308;DHT22;1666;48.898;9.182;2022-09-24T14:44:02;15.90;42.40
3308;DHT22;1666;48.898;9.182;2022-09-24T14:46:35;15.80;41.20
3308;DHT22;1666;48.898;9.182;2022-09-24T14:49:17;15.90;41.10
3308;DHT22;1666;48.898;9.182;2022-09-24T14:51:51;15.90;39.90
3308;DHT22;1666;48.898;9.182;2022-09-24T14:54:32;15.90;41.00
3308;DHT22;1666;48.898;9.182;2022-09-24T14:57:09;15.90;42.30
3308;DHT22;1666;48.898;9.182;2022-09-24T14:59:39;16.00;42.30
3308;DHT22;1666;48.898;9.182;2022-09-24T15:02:16;15.90;38.00
3308;DHT22;1666;48.898;9.182;2022-09-24T15:04:50;15.80;33.40
3308;DHT22;1666;48.898;9.182;2022-09-24T15:07:23;15.90;35.00
3308;DHT22;1666;48.898;9.182;2022-09-24T15:09:57;15.90;35.00
3308;DHT22;1666;48.898;9.182;2022-09-24T15:12:29;16.10;37.00
3308;DHT22;1666;48.898;9.182;2022-09-24T15:15:00;16.10;36.40
3308;DHT22;1666;48.898;9.182;2022-09-24T15:17:34;16.00;34.80
3308;DHT22;1666;48.898;9.182;2022-09-24T15:20:05;16.00;35.40
3308;DHT22;1666;48.898;9.182;2022-09-24T15:22:34;16.10;36.40
3308;DHT22;1666;48.898;9.182;2022-09-24T15:25:08;16.10;35.80
3308;DHT22;1666;48.898;9.182;2022-09-24T15:27:40;16.10;38.20
3308;DHT22;1666;48.898;9.182;2022-09-24T15:30:17;16.10;36.60
3308;DHT22;1666;48.898;9.182;2022-09-24T15:32:47;16.10;33.40
3308;DHT22;1666;48.898;9.182;2022-09-24T15:35:18;16.10;33.50
3308;DHT22;1666;48.898;9.182;2022-09-24T15:37:48;16.10;34.30
3308;DHT22;1666;48.898;9.182;2022-09-24T15:40:22;16.10;29.70
3308;DHT22;1666;48.898;9.182;2022-09-24T15:42:56;16.10;32.30
3308;DHT22;1666;48.898;9.182;2022-09-24T15:45:26;16.10;30.10
3308;DHT22;1666;48.898;9.182;2022-09-24T15:47:56;16.10;31.00
3308;DHT22;1666;48.898;9.182;2022-09-24T15:50:26;16.10;30.40
3308;DHT22;1666;48.898;9.182;2022-09-24T15:52:58;16.00;29.60
3308;DHT22;1666;48.898;9.182;2022-09-24T15:55:33;16.00;30.00
3308;DHT22;1666;48.898;9.182;2022-09-24T15:58:09;15.90;31.00
3308;DHT22;1666;48.898;9.182;2022-09-24T16:00:45;15.90;32.00
3308;DHT22;1666;48.898;9.182;2022-09-24T16:03:17;15.80;30.00
3308;DHT22;1666;48.898;9.182;2022-09-24T16:05:48;15.90;32.70
3308;DHT22;1666;48.898;9.182;2022-09-24T16:08:17;15.80;29.50
3308;DHT22;1666;48.898;9.182;2022-09-24T16:10:50;15.90;27.30
3308;DHT22;1666;48.898;9.182;2022-09-24T16:13:20;15.90;27.00
3308;DHT22;1666;48.898;9.182;2022-09-24T16:15:52;15.90;27.20
3308;DHT22;1666;48.898;9.182;2022-09-24T16:18:22;15.80;24.60
3308;DHT22;1666;48.898;9.182;2022-09-24T16:20:52;15.80;24.30
3308;DHT22;1666;48.898;9.182;2022-09-24T16:23:22;15.80;26.00
3308;DHT22;1666;48.898;9.182;2022-09-24T16:25:58;15.70;29.30
3308;DHT22;1666;48.898;9.182;2022-09-24T16:28:28;15.60;30.00
3308;DHT22;1666;48.898;9.182;2022-09-24T16:30:58;15.60;32.50
3308;DHT22;1666;48.898;9.182;2022-09-24T16:33:36;15.50;31.90
3308;DHT22;1666;48.898;9.182;2022-09-24T16:36:07;15.50;35.10
3308;DHT22;1666;48.898;9.182;2022-09-24T16:38:37;15.60;37.10
3308;DHT22;1666;48.898;9.182;2022-09-24T16:41:10;15.50;37.60
3308;DHT22;1666;48.898;9.182;2022-09-24T16:43:40;15.40;39.20
3308;DHT22;1666;48.898;9.182;2022-09-24T16:46:10;15.40;40.00
3308;DHT22;1666;48.898;9.182;2022-09-24T16:48:48;15.30;41.60
3308;DHT22;1666;48.898;9.182;2022-09-24T16:51:18;15.30;41.90
3308;DHT22;1666;48.898;9.182;2022-09-24T16:53:51;15.20;41.80